Time;durP1;ratioP1;P1;durP2;ratioP2;P2;SDS_P1;SDS_P2;PMS_P1;PMS_P2;Temp;Humidity;BMP_temperature;BMP_pressure;BME280_temperature;BME280_humidity;BME280_pressure;Samples;Min_cycle;Max_cycle;Signal;HPM_P1;HPM_P2
2021/08/28 00:01:56;;;;;;;3.97;3.20;;;14.70;99.90;;;;;;4972023;28;20011;-57
2021/08/28 00:04:21;;;;;;;3.97;3.58;;;14.70;99.90;;;;;;4971541;28;20445;-55
2021/08/28 00:06:47;;;;;;;3.60;2.80;;;14.70;99.90;;;;;;4971241;28;20489;-55
2021/08/28 00:09:13;;;;;;;3.38;2.92;;;14.70;99.90;;;;;;4971429;28;20031;-57
2021/08/28 00:11:38;;;;;;;2.95;2.47;;;14.70;99.90;;;;;;4971251;28;20023;-54
2021/08/28 00:14:04;;;;;;;4.25;2.78;;;14.70;99.90;;;;;;4970343;28;20026;-57
2021/08/28 00:16:30;;;;;;;2.38;2.13;;;14.70;99.90;;;;;;4970976;28;20031;-55
2021/08/28 00:18:56;;;;;;;3.22;2.65;;;14.70;99.90;;;;;;4971554;28;20378;-53
2021/08/28 00:21:22;;;;;;;2.78;2.17;;;14.70;99.90;;;;;;4971406;28;20038;-57
2021/08/28 00:23:47;;;;;;;2.50;2.25;;;14.60;99.90;;;;;;4971138;28;20543;-56
2021/08/28 00:26:13;;;;;;;2.30;2.10;;;14.70;99.90;;;;;;4970823;28;20622;-53
2021/08/28 00:28:38;;;;;;;4.70;2.80;;;14.70;99.90;;;;;;4970828;28;20393;-56
2021/08/28 00:31:05;;;;;;;2.50;2.30;;;14.70;99.90;;;;;;4971321;28;20405;-56
2021/08/28 00:33:31;;;;;;;3.97;3.00;;;14.60;99.90;;;;;;4965313;28;20406;-53
2021/08/28 00:35:56;;;;;;;4.03;2.72;;;14.70;99.90;;;;;;4968995;28;20029;-53
2021/08/28 00:38:22;;;;;;;3.65;2.22;;;14.60;99.90;;;;;;4970952;28;20536;-56
2021/08/28 00:40:47;;;;;;;3.70;2.80;;;14.70;99.90;;;;;;4970618;28;20035;-56
2021/08/28 00:43:13;;;;;;;3.10;2.80;;;14.60;99.90;;;;;;4970879;28;20106;-56
2021/08/28 00:45:39;;;;;;;5.88;3.05;;;14.60;99.90;;;;;;4969134;28;20030;-55
2021/08/28 00:48:10;;;;;;;5.95;3.25;;;14.60;99.90;;;;;;4970678;28;20043;-53
2021/08/28 00:50:37;;;;;;;3.65;2.35;;;14.60;99.90;;;;;;4970544;28;20030;-54
2021/08/28 00:53:09;;;;;;;4.38;2.65;;;14.60;99.90;;;;;;4967312;28;20058;-55
2021/08/28 00:55:35;;;;;;;9.30;3.25;;;14.60;99.90;;;;;;4970493;28;20031;-55
2021/08/28 00:58:01;;;;;;;2.50;2.25;;;14.70;99.90;;;;;;4967561;28;20482;-55
2021/08/28 01:00:28;;;;;;;3.70;2.60;;;14.60;99.90;;;;;;4968231;28;20121;-53
2021/08/28 01:02:55;;;;;;;4.05;2.58;;;14.60;99.90;;;;;;4968348;28;20035;-52
2021/08/28 01:05:24;;;;;;;4.18;2.78;;;14.60;99.90;;;;;;4969496;28;20053;-55
2021/08/28 01:08:22;;;;;;;3.53;3.22;;;14.60;99.90;;;;;;4970501;28;20716;-53
2021/08/28 01:10:56;;;;;;;5.00;3.38;;;14.60;99.90;;;;;;4984428;28;20027;-51
2021/08/28 01:13:23;;;;;;;3.33;2.60;;;14.60;99.90;;;;;;4970365;28;20437;-51
2021/08/28 01:15:52;;;;;;;3.70;3.30;;;14.60;99.90;;;;;;4969491;28;20022;-53
2021/08/28 01:18:20;;;;;;;3.33;2.80;;;14.60;99.90;;;;;;4970042;28;20011;-53
2021/08/28 01:20:57;;;;;;;8.85;3.90;;;14.60;99.90;;;;;;4970299;28;20130;-55
2021/08/28 01:23:25;;;;;;;3.00;2.55;;;14.60;99.90;;;;;;4965607;28;20026;-52
2021/08/28 01:25:52;;;;;;;3.25;2.95;;;14.60;99.90;;;;;;4969865;28;20103;-53
2021/08/28 01:28:20;;;;;;;3.60;3.30;;;14.60;99.90;;;;;;4968782;28;20110;-52
2021/08/28 01:30:46;;;;;;;3.38;3.08;;;14.60;99.90;;;;;;4969933;28;20507;-57
2021/08/28 01:33:15;;;;;;;5.97;3.28;;;14.60;99.90;;;;;;4969962;28;20102;-53
2021/08/28 01:35:45;;;;;;;3.72;3.38;;;14.60;99.90;;;;;;4964526;28;20094;-56
2021/08/28 01:38:11;;;;;;;3.10;2.80;;;14.60;99.90;;;;;;4968828;28;20030;-53
2021/08/28 01:40:39;;;;;;;3.97;3.05;;;14.60;99.90;;;;;;4969652;28;20027;-53
2021/08/28 01:43:06;;;;;;;4.32;3.00;;;14.60;99.90;;;;;;4968345;28;20037;-53
2021/08/28 01:45:32;;;;;;;2.50;2.30;;;14.60;99.90;;;;;;4968056;28;20050;-56
2021/08/28 01:47:58;;;;;;;3.95;3.25;;;14.60;99.90;;;;;;4969302;28;20084;-52
2021/08/28 01:50:31;;;;;;;3.90;2.55;;;14.60;99.90;;;;;;4967666;28;20052;-53
2021/08/28 01:52:56;;;;;;;3.75;3.35;;;14.60;99.90;;;;;;4966536;28;20034;-54
2021/08/28 01:55:22;;;;;;;3.70;2.33;;;14.60;99.90;;;;;;4969395;28;20026;-53
2021/08/28 01:57:48;;;;;;;2.85;2.65;;;14.60;99.90;;;;;;4969601;28;20027;-52
2021/08/28 02:00:13;;;;;;;2.42;2.22;;;14.60;99.90;;;;;;4969396;28;20035;-53
2021/08/28 02:02:39;;;;;;;2.65;2.38;;;14.60;99.90;;;;;;4969363;28;20049;-53
2021/08/28 02:05:05;;;;;;;2.30;2.10;;;14.50;99.90;;;;;;4969396;28;20069;-55
2021/08/28 02:07:35;;;;;;;3.05;2.30;;;14.50;99.90;;;;;;4969199;28;20014;-52
2021/08/28 02:10:06;;;;;;;9.25;3.67;;;14.50;99.90;;;;;;4981668;28;20026;-55
2021/08/28 02:12:37;;;;;;;5.28;3.15;;;14.50;99.90;;;;;;4969269;28;20022;-54
2021/08/28 02:15:09;;;;;;;3.83;2.80;;;14.50;99.90;;;;;;4968231;28;20104;-53
2021/08/28 02:18:15;;;;;;;2.30;2.10;;;14.60;99.90;;;;;;4967567;28;20473;-52
2021/08/28 02:20:45;;;;;;;2.25;2.10;;;14.60;99.90;;;;;;4954007;28;20038;-51
2021/08/28 02:23:14;;;;;;;6.00;2.45;;;14.50;99.90;;;;;;4969339;28;20057;-53
2021/08/28 02:25:46;;;;;;;6.70;1.55;;;14.50;99.90;;;;;;4976139;28;20023;-52
2021/08/28 02:28:13;;;;;;;5.00;1.60;;;14.50;99.90;;;;;;4969012;28;20023;-51
2021/08/28 02:30:39;;;;;;;1.38;1.27;;;14.50;99.90;;;;;;4969191;28;20023;-54
2021/08/28 02:33:07;;;;;;;0.88;0.82;;;14.50;99.90;;;;;;4969121;28;20035;-53
2021/08/28 02:35:34;;;;;;;1.40;1.27;;;14.50;99.90;;;;;;4968517;28;20015;-54
2021/08/28 02:38:00;;;;;;;2.85;1.20;;;14.40;99.90;;;;;;4968499;28;20286;-55
2021/08/28 02:40:28;;;;;;;1.33;1.23;;;14.40;99.90;;;;;;4968703;28;20117;-55
2021/08/28 02:42:55;;;;;;;2.00;1.08;;;14.30;99.90;;;;;;4969083;28;20026;-54
2021/08/28 02:45:25;;;;;;;1.30;1.20;;;14.30;99.90;;;;;;4964886;28;20023;-53
2021/08/28 02:47:52;;;;;;;0.90;0.90;;;14.30;99.90;;;;;;4968888;28;20029;-55
2021/08/28 02:50:20;;;;;;;1.20;1.08;;;14.30;99.90;;;;;;4968570;28;20031;-53
2021/08/28 02:52:48;;;;;;;1.33;1.23;;;14.30;99.90;;;;;;4969130;28;20023;-52
2021/08/28 02:55:15;;;;;;;1.90;0.90;;;14.30;99.90;;;;;;4968654;28;20023;-51
2021/08/28 02:57:45;;;;;;;1.10;1.00;;;14.30;99.90;;;;;;4964422;28;20047;-51
2021/08/28 03:00:11;;;;;;;1.48;1.30;;;14.30;99.90;;;;;;4967893;28;20575;-52
2021/08/28 03:02:40;;;;;;;1.70;1.50;;;14.30;99.90;;;;;;4968658;28;20106;-52
2021/08/28 03:05:07;;;;;;;1.77;1.42;;;14.30;99.90;;;;;;4969007;28;20421;-51
2021/08/28 03:07:36;;;;;;;1.58;1.48;;;14.30;99.90;;;;;;4968855;28;20019;-54
2021/08/28 03:10:03;;;;;;;1.38;1.27;;;14.20;99.90;;;;;;4969163;28;20149;-54
2021/08/28 03:12:28;;;;;;;1.50;1.40;;;14.20;99.90;;;;;;4969055;28;20069;-56
2021/08/28 03:14:54;;;;;;;3.15;1.50;;;14.10;99.90;;;;;;4968339;28;20018;-54
2021/08/28 03:17:20;;;;;;;1.63;1.52;;;14.20;99.90;;;;;;4968651;28;20389;-54
2021/08/28 03:19:47;;;;;;;1.52;1.42;;;14.10;99.90;;;;;;4969313;28;20031;-56
2021/08/28 03:22:19;;;;;;;4.20;1.80;;;14.10;99.90;;;;;;4973022;28;20436;-52
2021/08/28 03:24:48;;;;;;;1.60;1.40;;;14.10;99.90;;;;;;4972320;28;20026;-52
2021/08/28 03:27:16;;;;;;;2.13;1.92;;;14.10;99.90;;;;;;4971945;28;20081;-52
2021/08/28 03:29:43;;;;;;;1.92;1.83;;;14.10;99.90;;;;;;4972365;28;20038;-54
2021/08/28 03:32:10;;;;;;;1.95;1.70;;;14.10;99.90;;;;;;4972460;28;20031;-53
2021/08/28 03:34:37;;;;;;;1.73;1.50;;;14.10;99.90;;;;;;4972186;28;20605;-52
2021/08/28 03:37:03;;;;;;;1.77;1.52;;;14.10;99.90;;;;;;4968467;28;20035;-51
2021/08/28 03:39:29;;;;;;;2.38;1.80;;;14.10;99.90;;;;;;4972127;28;20052;-54
2021/08/28 03:41:55;;;;;;;1.65;1.55;;;14.10;99.90;;;;;;4970855;28;20027;-52
2021/08/28 03:44:21;;;;;;;1.85;1.75;;;14.00;99.90;;;;;;4972338;28;20059;-52
2021/08/28 03:46:49;;;;;;;1.77;1.67;;;14.00;99.90;;;;;;4970145;28;20133;-52
2021/08/28 03:49:15;;;;;;;1.80;1.70;;;14.00;99.90;;;;;;4972097;28;20023;-53
2021/08/28 03:51:41;;;;;;;2.70;1.77;;;14.00;99.90;;;;;;4970782;28;20034;-53
2021/08/28 03:54:06;;;;;;;2.42;2.05;;;14.10;99.90;;;;;;4972141;28;20042;-53
2021/08/28 03:56:32;;;;;;;2.08;1.80;;;14.10;99.90;;;;;;4971408;28;20031;-54
2021/08/28 03:58:57;;;;;;;1.73;1.63;;;14.00;99.90;;;;;;4971818;28;20026;-55
2021/08/28 04:01:23;;;;;;;1.95;1.80;;;14.00;99.90;;;;;;4971562;28;20041;-55
2021/08/28 04:03:49;;;;;;;3.17;1.75;;;14.00;99.90;;;;;;4971560;28;20490;-55
2021/08/28 04:06:15;;;;;;;1.83;1.73;;;14.00;99.90;;;;;;4971476;28;20027;-55
2021/08/28 04:08:40;;;;;;;1.88;1.77;;;14.00;99.90;;;;;;4971640;28;20474;-53
2021/08/28 04:11:06;;;;;;;2.00;1.90;;;14.00;99.90;;;;;;4971488;28;20097;-54
2021/08/28 04:13:31;;;;;;;2.17;1.90;;;14.00;99.90;;;;;;4971896;28;20034;-57
2021/08/28 04:15:57;;;;;;;3.60;2.67;;;14.00;99.90;;;;;;4971196;28;20540;-55
2021/08/28 04:18:23;;;;;;;2.72;2.42;;;14.00;99.90;;;;;;4971651;28;20520;-53
2021/08/28 04:20:48;;;;;;;2.22;2.03;;;13.90;99.90;;;;;;4971878;28;20030;-54
2021/08/28 04:23:14;;;;;;;2.28;2.08;;;14.00;99.90;;;;;;4970056;28;20429;-55
2021/08/28 04:25:39;;;;;;;2.40;2.20;;;14.00;99.90;;;;;;4971284;28;20085;-53
2021/08/28 04:28:06;;;;;;;2.90;2.70;;;13.90;99.90;;;;;;4969537;28;20532;-54
2021/08/28 04:30:32;;;;;;;3.83;2.97;;;14.00;99.90;;;;;;4969765;28;20026;-56
2021/08/28 04:32:58;;;;;;;3.88;2.92;;;14.00;99.90;;;;;;4970755;28;20110;-53
2021/08/28 04:35:24;;;;;;;3.50;3.20;;;14.00;99.90;;;;;;4967980;28;20031;-53
2021/08/28 04:37:50;;;;;;;4.18;3.50;;;14.00;99.90;;;;;;4970733;28;20023;-53
2021/08/28 04:40:16;;;;;;;3.70;3.13;;;14.00;99.90;;;;;;4970520;28;20027;-53
2021/08/28 04:42:41;;;;;;;3.90;3.60;;;14.00;99.90;;;;;;4971017;28;20025;-53
2021/08/28 04:45:07;;;;;;;4.88;3.70;;;14.00;99.90;;;;;;4970622;28;20529;-53
2021/08/28 04:47:33;;;;;;;6.38;4.22;;;14.00;99.90;;;;;;4970830;28;20154;-52
2021/08/28 04:49:59;;;;;;;5.78;4.40;;;14.00;99.90;;;;;;4970969;28;20098;-52
2021/08/28 04:52:24;;;;;;;5.00;4.47;;;14.00;99.90;;;;;;4970316;28;20059;-55
2021/08/28 04:54:50;;;;;;;6.55;5.30;;;14.00;99.90;;;;;;4970799;28;20027;-52
2021/08/28 04:57:15;;;;;;;9.13;7.70;;;14.00;99.90;;;;;;4970802;28;20035;-55
2021/08/28 04:59:41;;;;;;;8.38;7.47;;;14.00;99.90;;;;;;4971227;28;20027;-54
2021/08/28 05:02:07;;;;;;;8.25;7.45;;;14.00;99.90;;;;;;4971070;28;20277;-52
2021/08/28 05:04:32;;;;;;;8.57;7.68;;;14.10;99.90;;;;;;4970219;28;20070;-53
2021/08/28 05:07:01;;;;;;;9.85;8.85;;;14.00;99.90;;;;;;4970454;28;20484;-56
2021/08/28 05:09:27;;;;;;;10.63;9.00;;;14.10;99.90;;;;;;4970696;28;20474;-54
2021/08/28 05:11:52;;;;;;;13.98;9.52;;;14.10;99.90;;;;;;4969618;28;20033;-55
2021/08/28 05:14:18;;;;;;;11.70;9.82;;;14.20;99.90;;;;;;4970566;28;20034;-54
2021/08/28 05:16:43;;;;;;;11.90;9.68;;;14.10;99.90;;;;;;4970029;28;20298;-54
2021/08/28 05:19:09;;;;;;;11.70;9.80;;;14.10;99.90;;;;;;4970303;28;20027;-56
2021/08/28 05:21:34;;;;;;;14.18;10.00;;;14.10;99.90;;;;;;4970980;28;20031;-52
2021/08/28 05:24:00;;;;;;;13.35;10.80;;;14.10;99.90;;;;;;4970483;28;20400;-54
2021/08/28 05:26:26;;;;;;;14.30;10.40;;;14.10;99.90;;;;;;4968502;28;20015;-55
2021/08/28 05:28:51;;;;;;;15.52;10.95;;;14.10;99.90;;;;;;4970306;28;20015;-56
2021/08/28 05:31:17;;;;;;;13.07;10.27;;;14.10;99.90;;;;;;4970044;28;20030;-55
2021/08/28 05:33:42;;;;;;;12.82;10.55;;;14.20;99.90;;;;;;4970427;28;20058;-54
2021/08/28 05:36:08;;;;;;;18.05;12.13;;;14.20;99.90;;;;;;4969732;28;20106;-52
2021/08/28 05:38:34;;;;;;;19.23;11.77;;;14.20;99.90;;;;;;4969870;28;20033;-53
2021/08/28 05:41:00;;;;;;;18.13;11.25;;;14.20;99.90;;;;;;4970150;28;20027;-55
2021/08/28 05:43:26;;;;;;;15.10;11.07;;;14.20;99.90;;;;;;4968990;28;20023;-56
2021/08/28 05:45:51;;;;;;;16.25;10.52;;;14.20;99.90;;;;;;4969786;28;20046;-55
2021/08/28 05:48:17;;;;;;;13.30;10.93;;;14.20;99.90;;;;;;4970146;28;20105;-54
2021/08/28 05:50:43;;;;;;;15.63;11.30;;;14.30;99.90;;;;;;4969973;28;20046;-55
2021/08/28 05:53:08;;;;;;;15.10;11.80;;;14.30;99.90;;;;;;4968360;28;20153;-55
2021/08/28 05:55:34;;;;;;;14.40;10.48;;;14.30;99.90;;;;;;4987277;23;20059;-45
2021/08/28 05:57:59;;;;;;;12.15;9.90;;;14.30;99.90;;;;;;4969026;28;20113;-46
2021/08/28 06:00:25;;;;;;;11.73;10.10;;;14.30;99.90;;;;;;4965621;28;20026;-45
2021/08/28 06:02:51;;;;;;;13.35;10.15;;;14.30;99.90;;;;;;4968298;28;20508;-45
2021/08/28 06:05:16;;;;;;;11.75;9.43;;;14.30;99.90;;;;;;4965136;28;20031;-49
2021/08/28 06:07:42;;;;;;;12.45;9.63;;;14.30;99.90;;;;;;4953222;28;20020;-48
2021/08/28 06:10:08;;;;;;;12.00;10.20;;;14.30;99.90;;;;;;4950823;28;20106;-46
2021/08/28 06:12:34;;;;;;;15.02;10.07;;;14.40;99.90;;;;;;4964607;28;20621;-46
2021/08/28 06:15:00;;;;;;;12.57;10.95;;;14.30;99.90;;;;;;4957639;28;20054;-46
2021/08/28 06:17:26;;;;;;;11.05;9.80;;;14.40;99.90;;;;;;4954390;28;20026;-47
2021/08/28 06:19:52;;;;;;;12.70;10.45;;;14.40;99.90;;;;;;4961156;28;20019;-45
2021/08/28 06:22:17;;;;;;;17.88;10.65;;;14.40;99.90;;;;;;4961050;28;20054;-47
2021/08/28 06:24:43;;;;;;;12.35;9.32;;;14.40;99.90;;;;;;4960513;28;20026;-50
2021/08/28 06:27:09;;;;;;;14.40;9.80;;;14.50;99.90;;;;;;4959804;28;20106;-46
2021/08/28 06:29:36;;;;;;;10.13;8.80;;;14.50;99.90;;;;;;4962873;28;20046;-48
2021/08/28 06:32:02;;;;;;;11.52;9.45;;;14.50;99.90;;;;;;4955259;28;20042;-48
2021/08/28 06:34:28;;;;;;;12.60;9.02;;;14.60;99.90;;;;;;4956015;28;20650;-54
2021/08/28 06:36:54;;;;;;;11.45;8.57;;;14.60;99.90;;;;;;4960139;28;20039;-49
2021/08/28 06:39:19;;;;;;;10.98;8.57;;;14.70;99.90;;;;;;4959741;28;20027;-50
2021/08/28 06:41:45;;;;;;;9.88;8.23;;;14.80;99.90;;;;;;4960457;28;20030;-49
2021/08/28 06:44:10;;;;;;;12.48;8.95;;;14.80;99.90;;;;;;4959438;28;20129;-46
2021/08/28 06:46:36;;;;;;;11.98;8.13;;;14.80;99.90;;;;;;4960644;28;20026;-49
2021/08/28 06:49:02;;;;;;;10.25;8.52;;;14.80;99.90;;;;;;4959806;28;20031;-48
2021/08/28 06:51:28;;;;;;;8.80;7.35;;;14.80;99.90;;;;;;4961095;28;20019;-50
2021/08/28 06:53:54;;;;;;;9.02;6.93;;;14.90;99.90;;;;;;4960876;28;20038;-49
2021/08/28 06:56:19;;;;;;;8.18;6.40;;;14.90;99.90;;;;;;4964217;28;20114;-48
2021/08/28 06:58:45;;;;;;;10.20;6.75;;;14.90;99.90;;;;;;4963789;28;20027;-47
2021/08/28 07:01:11;;;;;;;10.38;6.90;;;14.90;99.90;;;;;;4963646;28;20550;-47
2021/08/28 07:03:37;;;;;;;7.78;6.38;;;14.90;99.90;;;;;;4964366;28;20105;-49
2021/08/28 07:06:03;;;;;;;8.57;6.38;;;14.90;99.90;;;;;;4963056;28;20138;-49
2021/08/28 07:08:28;;;;;;;10.45;6.05;;;14.90;99.90;;;;;;4964718;28;20495;-49
2021/08/28 07:10:54;;;;;;;9.73;6.43;;;14.90;99.90;;;;;;4964294;28;20019;-48
2021/08/28 07:13:21;;;;;;;9.80;5.53;;;14.90;99.90;;;;;;4950000;28;20023;-49
2021/08/28 07:15:47;;;;;;;8.88;5.88;;;14.90;99.90;;;;;;4956617;28;20034;-51
2021/08/28 07:18:12;;;;;;;7.55;5.53;;;14.90;99.90;;;;;;4965026;28;20027;-50
2021/08/28 07:20:39;;;;;;;8.45;5.25;;;15.00;99.90;;;;;;4964771;28;20019;-49
2021/08/28 07:23:06;;;;;;;5.97;4.72;;;15.00;99.90;;;;;;4963020;28;20035;-51
2021/08/28 07:25:37;;;;;;;9.55;5.13;;;15.00;99.90;;;;;;4963495;28;20046;-49
2021/08/28 07:28:06;;;;;;;6.95;5.10;;;15.10;99.90;;;;;;4964129;28;20023;-47
2021/08/28 07:30:32;;;;;;;6.38;5.13;;;15.10;99.90;;;;;;4958452;28;20019;-51
2021/08/28 07:32:58;;;;;;;4.85;3.83;;;15.10;99.90;;;;;;4963767;28;20652;-49
2021/08/28 07:35:24;;;;;;;4.75;4.28;;;15.10;99.90;;;;;;4963403;28;20026;-48
2021/08/28 07:37:50;;;;;;;6.57;4.20;;;15.20;99.90;;;;;;4962838;28;20042;-47
2021/08/28 07:40:15;;;;;;;6.55;3.78;;;15.10;99.90;;;;;;4961428;28;20035;-47
2021/08/28 07:42:41;;;;;;;4.95;3.90;;;15.10;99.90;;;;;;4964927;28;20520;-49
2021/08/28 07:45:08;;;;;;;6.85;4.55;;;15.20;99.90;;;;;;4962171;28;20132;-48
2021/08/28 07:47:33;;;;;;;4.63;4.00;;;15.20;99.90;;;;;;4964388;28;20065;-46
2021/08/28 07:49:59;;;;;;;10.23;4.47;;;15.20;99.90;;;;;;4963526;28;20180;-50
2021/08/28 07:52:24;;;;;;;10.25;4.90;;;15.20;99.90;;;;;;4964854;28;20479;-49
2021/08/28 07:54:50;;;;;;;8.82;4.53;;;15.20;99.90;;;;;;4964029;28;20660;-46
2021/08/28 07:57:16;;;;;;;5.18;4.13;;;15.20;99.90;;;;;;4961211;28;20027;-46
2021/08/28 07:59:41;;;;;;;5.88;4.05;;;15.20;99.90;;;;;;4964955;28;20027;-47
2021/08/28 08:02:07;;;;;;;4.10;3.70;;;15.10;99.90;;;;;;4962461;28;20037;-48
2021/08/28 08:04:33;;;;;;;6.35;4.22;;;15.20;99.90;;;;;;4963040;28;20045;-46
2021/08/28 08:06:58;;;;;;;4.68;4.18;;;15.20;99.90;;;;;;4963151;28;20034;-46
2021/08/28 08:09:24;;;;;;;4.10;3.70;;;15.20;99.90;;;;;;4963058;28;20034;-48
2021/08/28 08:11:50;;;;;;;5.50;3.70;;;15.20;99.90;;;;;;4963983;28;20102;-46
2021/08/28 08:14:15;;;;;;;5.78;3.70;;;15.20;99.90;;;;;;4960760;28;20143;-46
2021/08/28 08:16:41;;;;;;;6.57;3.75;;;15.20;99.90;;;;;;4959717;28;20039;-49
2021/08/28 08:19:07;;;;;;;3.83;3.22;;;15.20;99.90;;;;;;4968006;28;20039;-48
2021/08/28 08:21:32;;;;;;;4.30;3.35;;;15.20;99.90;;;;;;4960396;28;20035;-50
2021/08/28 08:23:58;;;;;;;3.20;2.90;;;15.20;99.90;;;;;;4959248;28;20031;-47
2021/08/28 08:26:23;;;;;;;3.47;3.08;;;15.20;99.90;;;;;;4965364;28;20023;-49
2021/08/28 08:28:49;;;;;;;4.13;3.03;;;15.30;99.90;;;;;;4961761;28;20486;-47
2021/08/28 08:31:15;;;;;;;3.80;2.90;;;15.20;99.90;;;;;;4967364;28;20035;-48
2021/08/28 08:33:40;;;;;;;3.38;2.95;;;15.20;99.90;;;;;;4961048;28;20490;-48
2021/08/28 08:36:06;;;;;;;5.45;2.88;;;15.20;99.90;;;;;;4966647;28;20031;-50
2021/08/28 08:38:32;;;;;;;4.18;2.60;;;15.30;99.90;;;;;;4960431;28;20023;-49
2021/08/28 08:40:58;;;;;;;2.95;2.38;;;15.30;99.90;;;;;;4960999;28;20029;-48
2021/08/28 08:43:24;;;;;;;3.72;2.45;;;15.40;99.90;;;;;;4966063;28;20031;-47
2021/08/28 08:45:51;;;;;;;2.80;2.20;;;15.50;99.90;;;;;;4960017;28;20012;-49
2021/08/28 08:48:17;;;;;;;3.83;2.15;;;15.50;99.90;;;;;;4966370;28;20027;-49
2021/08/28 08:50:46;;;;;;;5.97;2.78;;;15.60;99.90;;;;;;4959637;28;20020;-46
2021/08/28 08:53:15;;;;;;;2.40;1.90;;;15.60;99.90;;;;;;4966885;28;20089;-48
2021/08/28 08:55:42;;;;;;;3.08;1.90;;;15.80;99.90;;;;;;4959104;28;20086;-46
2021/08/28 08:58:07;;;;;;;2.08;1.83;;;15.80;99.90;;;;;;4961285;28;20027;-46
2021/08/28 09:00:33;;;;;;;1.70;1.60;;;15.90;99.90;;;;;;4963550;28;20786;-45
2021/08/28 09:02:59;;;;;;;1.70;1.60;;;15.90;99.90;;;;;;4960436;28;20020;-49
2021/08/28 09:05:25;;;;;;;2.25;1.60;;;16.00;99.90;;;;;;4965399;28;20020;-46
2021/08/28 09:07:50;;;;;;;1.80;1.60;;;16.10;99.90;;;;;;4959633;28;20070;-48
2021/08/28 09:10:17;;;;;;;1.50;1.40;;;16.10;99.90;;;;;;4967194;28;20414;-47
2021/08/28 09:12:43;;;;;;;3.88;1.77;;;16.20;99.90;;;;;;4958811;28;20086;-51
2021/08/28 09:15:14;;;;;;;1.42;1.33;;;16.30;99.90;;;;;;4959501;28;20062;-49
2021/08/28 09:17:43;;;;;;;2.00;1.30;;;16.30;99.90;;;;;;4961499;28;20030;-50
2021/08/28 09:20:27;;;;;;;4.32;1.80;;;16.30;99.90;;;;;;4953749;28;20035;-51
2021/08/28 09:23:13;;;;;;;2.30;0.95;;;16.40;99.90;;;;;;4962501;28;20027;-50
2021/08/28 09:25:41;;;;;;;5.15;1.60;;;16.40;99.90;;;;;;4951103;28;20051;-50
2021/08/28 09:28:08;;;;;;;1.35;1.25;;;16.40;99.90;;;;;;4960934;28;20031;-49
2021/08/28 09:30:49;;;;;;;5.97;2.35;;;16.40;99.90;;;;;;4963448;28;20084;-49
2021/08/28 09:33:24;;;;;;;1.27;1.15;;;16.40;99.90;;;;;;4959817;28;20074;-53
2021/08/28 09:35:51;;;;;;;2.50;1.48;;;16.30;99.90;;;;;;4965478;28;20021;-49
2021/08/28 09:38:23;;;;;;;7.45;1.35;;;16.20;99.90;;;;;;5073563;28;20387;-48
2021/08/28 09:40:57;;;;;;;2.33;1.40;;;16.20;99.90;;;;;;5065166;28;20071;-49
2021/08/28 09:43:24;;;;;;;2.40;1.48;;;16.30;99.90;;;;;;5050068;28;20172;-50
2021/08/28 09:45:51;;;;;;;1.40;1.30;;;16.30;99.90;;;;;;5063816;28;20021;-51
2021/08/28 09:48:19;;;;;;;3.25;1.95;;;16.30;99.90;;;;;;5062628;28;20523;-49
2021/08/28 09:50:47;;;;;;;1.80;1.48;;;16.30;99.90;;;;;;5060345;28;20055;-50
2021/08/28 09:53:21;;;;;;;2.05;1.83;;;16.40;99.90;;;;;;5063015;28;20024;-49
2021/08/28 09:55:54;;;;;;;2.95;1.80;;;16.50;99.90;;;;;;5059931;28;20467;-48
2021/08/28 09:58:23;;;;;;;4.35;2.08;;;16.50;99.90;;;;;;5063608;28;20103;-49
2021/08/28 10:00:49;;;;;;;4.15;1.52;;;16.50;99.90;;;;;;5061319;28;20016;-50
2021/08/28 10:03:14;;;;;;;3.10;2.50;;;16.50;99.90;;;;;;5063419;28;20029;-48
2021/08/28 10:05:44;;;;;;;2.33;1.83;;;16.50;99.90;;;;;;5059804;28;20029;-52
2021/08/28 10:08:10;;;;;;;4.32;2.05;;;16.50;99.90;;;;;;5062817;28;20020;-53
2021/08/28 10:10:37;;;;;;;2.53;1.98;;;16.60;99.90;;;;;;5059246;28;20552;-51
2021/08/28 10:13:04;;;;;;;2.50;2.08;;;16.60;99.90;;;;;;5061683;28;20021;-47
2021/08/28 10:15:32;;;;;;;1.60;1.50;;;16.50;99.90;;;;;;5063628;28;20444;-49
2021/08/28 10:17:59;;;;;;;2.65;1.90;;;16.50;99.90;;;;;;5063406;28;20032;-47
2021/08/28 10:20:27;;;;;;;3.05;1.70;;;16.50;99.90;;;;;;5059748;28;20017;-52
2021/08/28 10:22:55;;;;;;;1.85;1.75;;;16.50;99.90;;;;;;5054633;28;20021;-47
2021/08/28 10:25:24;;;;;;;2.72;1.52;;;16.50;99.90;;;;;;5053076;28;20012;-49
2021/08/28 10:27:51;;;;;;;2.60;1.42;;;16.50;99.90;;;;;;5048295;28;20025;-51
2021/08/28 10:30:19;;;;;;;2.60;1.65;;;16.60;99.90;;;;;;5055487;28;20047;-51
2021/08/28 10:32:46;;;;;;;1.10;1.00;;;16.50;99.90;;;;;;5050398;28;20391;-46
2021/08/28 10:35:13;;;;;;;2.85;1.90;;;16.50;99.90;;;;;;5056083;28;20033;-50
2021/08/28 10:37:39;;;;;;;2.33;1.30;;;16.40;99.90;;;;;;5044982;28;20068;-48
2021/08/28 10:40:25;;;;;;;2.13;1.42;;;16.40;99.90;;;;;;5053064;28;20025;-46
2021/08/28 10:42:53;;;;;;;13.35;2.78;;;16.50;99.90;;;;;;5044400;28;20099;-48
2021/08/28 10:45:28;;;;;;;1.40;1.30;;;16.50;99.90;;;;;;5048798;28;20024;-48
2021/08/28 10:47:59;;;;;;;1.05;1.00;;;16.50;99.90;;;;;;5051915;28;20432;-46
2021/08/28 10:50:25;;;;;;;1.40;1.30;;;16.40;99.90;;;;;;5030296;28;20031;-45
2021/08/28 10:52:51;;;;;;;2.15;1.30;;;16.50;99.90;;;;;;5043370;28;20045;-46
2021/08/28 10:55:17;;;;;;;1.35;1.08;;;16.50;99.90;;;;;;5047247;28;20025;-46
2021/08/28 10:57:43;;;;;;;1.95;1.08;;;16.50;99.90;;;;;;5038569;28;20017;-46
2021/08/28 11:00:16;;;;;;;2.42;1.08;;;16.40;99.90;;;;;;5039479;28;20017;-50
2021/08/28 11:02:59;;;;;;;2.17;1.33;;;16.40;99.90;;;;;;5031428;28;20021;-47
2021/08/28 11:05:30;;;;;;;1.70;1.35;;;16.40;99.90;;;;;;5030127;28;20017;-47
2021/08/28 11:07:57;;;;;;;3.33;1.52;;;16.40;99.90;;;;;;5029289;28;20028;-48
2021/08/28 11:10:27;;;;;;;1.45;0.95;;;16.40;99.90;;;;;;5045142;28;20534;-50
2021/08/28 11:13:05;;;;;;;3.80;1.13;;;16.40;99.90;;;;;;5034634;28;20553;-46
2021/08/28 11:15:30;;;;;;;2.30;1.20;;;16.50;99.90;;;;;;5029389;28;20441;-46
2021/08/28 11:17:58;;;;;;;11.65;1.70;;;16.60;99.90;;;;;;5047676;28;20032;-51
2021/08/28 11:20:29;;;;;;;1.58;1.00;;;16.60;99.90;;;;;;5045378;28;20017;-48
2021/08/28 11:22:55;;;;;;;6.93;1.48;;;16.60;99.90;;;;;;5047801;28;20017;-51
2021/08/28 11:25:29;;;;;;;1.00;0.82;;;16.50;99.90;;;;;;5049569;28;20021;-49
2021/08/28 11:27:56;;;;;;;1.13;1.02;;;16.50;99.90;;;;;;5040788;28;20492;-50
2021/08/28 11:30:55;;;;;;;3.53;1.02;;;16.40;99.90;;;;;;5048013;28;20112;-52
2021/08/28 11:33:34;;;;;;;3.08;1.00;;;16.50;99.90;;;;;;5019469;28;20029;-46
2021/08/28 11:36:03;;;;;;;10.97;2.00;;;16.60;99.90;;;;;;5039136;28;20118;-49
2021/08/28 11:38:58;;;;;;;0.75;0.60;;;16.70;99.90;;;;;;5041909;28;20423;-48
2021/08/28 11:41:26;;;;;;;0.55;0.50;;;16.70;99.90;;;;;;5025016;28;20033;-50
2021/08/28 11:43:54;;;;;;;1.15;0.52;;;16.50;99.90;;;;;;5040729;28;20025;-45
2021/08/28 11:46:28;;;;;;;0.77;0.68;;;16.40;99.90;;;;;;5034732;28;20052;-45
2021/08/28 11:48:55;;;;;;;0.40;0.40;;;16.30;99.90;;;;;;5040733;28;20156;-46
2021/08/28 11:51:23;;;;;;;2.75;0.95;;;16.30;99.90;;;;;;5029493;28;20032;-49
2021/08/28 11:53:54;;;;;;;13.00;0.90;;;16.40;99.90;;;;;;5042257;28;20028;-47
2021/08/28 11:56:22;;;;;;;1.05;0.30;;;16.40;99.90;;;;;;5039186;28;20032;-46
2021/08/28 11:58:54;;;;;;;0.35;0.30;;;16.50;99.90;;;;;;5029863;28;20017;-47
2021/08/28 12:01:27;;;;;;;1.02;0.80;;;16.50;99.90;;;;;;5044901;28;20025;-47
2021/08/28 12:03:52;;;;;;;0.70;0.50;;;16.50;99.90;;;;;;5044989;28;20100;-48
2021/08/28 12:06:18;;;;;;;1.48;0.52;;;16.50;99.90;;;;;;5041901;28;20163;-47
2021/08/28 12:08:47;;;;;;;0.55;0.40;;;16.50;99.90;;;;;;5032372;28;20037;-48
2021/08/28 12:11:15;;;;;;;0.85;0.80;;;16.50;99.90;;;;;;5044316;28;20484;-45
2021/08/28 12:13:49;;;;;;;1.15;0.70;;;16.40;99.90;;;;;;5036151;28;20030;-46
2021/08/28 12:16:21;;;;;;;0.57;0.30;;;16.40;99.90;;;;;;5038010;28;20045;-47
2021/08/28 12:18:55;;;;;;;1.27;0.68;;;16.40;99.90;;;;;;5047876;28;20021;-46
2021/08/28 12:21:21;;;;;;;0.45;0.45;;;16.50;99.90;;;;;;5036233;28;20116;-47
2021/08/28 12:23:46;;;;;;;0.93;0.70;;;16.50;99.90;;;;;;5048654;28;20091;-46
2021/08/28 12:26:14;;;;;;;0.70;0.60;;;16.50;99.90;;;;;;5046301;28;20193;-46
2021/08/28 12:28:41;;;;;;;1.30;0.80;;;16.60;99.90;;;;;;5042089;28;20032;-48
2021/08/28 12:31:06;;;;;;;1.67;0.88;;;16.60;99.90;;;;;;5047138;28;20024;-46
2021/08/28 12:33:32;;;;;;;3.30;1.05;;;16.70;99.90;;;;;;5043662;28;20032;-53
2021/08/28 12:35:58;;;;;;;0.60;0.60;;;16.80;99.90;;;;;;5046945;28;20056;-47
2021/08/28 12:38:30;;;;;;;0.60;0.47;;;16.70;99.90;;;;;;5040701;28;20029;-48
2021/08/28 12:40:56;;;;;;;1.15;0.77;;;16.80;99.90;;;;;;5047195;28;20052;-48
2021/08/28 12:43:23;;;;;;;2.63;0.73;;;16.80;99.90;;;;;;5045071;28;20106;-47
2021/08/28 12:45:49;;;;;;;1.23;0.50;;;16.90;99.90;;;;;;5037994;28;20693;-51
2021/08/28 12:48:17;;;;;;;1.02;0.63;;;16.80;99.90;;;;;;5045821;28;20021;-50